Terminal Aerodrome Forecast
Issued by NWS

Home | Current Version | Previous Version | Text Only | Print | Product List | Glossary On
Versions: 1 2 3 4 5 6 7 8 9 10 11 12 13
000
FTUS45 KSLC 261120
TAF36U
TAF
K36U 261120Z 2612/2712 VRB04KT P6SM SCT080
     FM261700 32008KT P6SM VCSH SCT040 BKN080
     FM270300 VRB04KT P6SM FEW040 SCT080=

USA.gov is the U.S. government's official web portal to all federal, state and local government web resources and services.